Flight Track Log - Related Links

Times and Time Zones

All times are in EDT time to prevent confusion due to time zone crossing. See the LN-RNL flight status page for this flight to view local times or setup timezone preferences in your user account.

Time Position Orientation Groundspeed Altitude Reporting Facility
EDT Latitude Longitude Course Direction KTS MPH feet Rate Location/Type
Wed 12:17:15 PM 55.6041 12.6172 238° Southwest  Level Estimated
Wed 12:18:15 PM 55.5487 12.4624 238° Southwest  Level Estimated
Wed 12:19:15 PM 55.4931 12.3080 237° Southwest  Level Estimated
Wed 12:20:15 PM 55.4373 12.1541 237° Southwest  Level Estimated
Wed 12:21:15 PM 55.3814 12.0006 237° Southwest  Level Estimated
Wed 12:22:15 PM 55.3252 11.8476 237° Southwest  Level Estimated
Wed 12:23:15 PM 55.2688 11.6949 237° Southwest  Level Estimated
Wed 12:24:15 PM 55.2123 11.5428 237° Southwest  Level Estimated
Wed 12:25:15 PM 55.1555 11.3910 237° Southwest  Level Estimated
Wed 12:26:15 PM 55.0986 11.2397 237° Southwest  Level Estimated
Wed 12:27:15 PM 55.0415 11.0888 236° Southwest  Level Estimated
Wed 12:28:15 PM 54.9842 10.9383 236° Southwest  Level Estimated
Wed 12:29:15 PM 54.9267 10.7883 236° Southwest  Level Estimated
Wed 12:30:15 PM 54.8690 10.6386 236° Southwest  Level Estimated
Wed 12:31:15 PM 54.8112 10.4895 236° Southwest  Level Estimated
Wed 12:32:15 PM 54.7532 10.3407 236° Southwest  Level Estimated
Wed 12:33:15 PM 54.6949 10.1924 236° Southwest  Level Estimated
Wed 12:34:15 PM 54.6365 10.0445 236° Southwest  Level Estimated
Wed 12:35:15 PM 54.5780 9.8970 235° Southwest  Level Estimated
Wed 12:36:15 PM 54.5192 9.7500 235° Southwest  Level Estimated
Wed 12:37:15 PM 54.4603 9.6033 235° Southwest  Level Estimated
Wed 12:38:15 PM 54.4012 9.4571 235° Southwest  Level Estimated
Wed 12:39:15 PM 54.3419 9.3114 235° Southwest  Level Estimated
Wed 12:40:15 PM 54.2824 9.1660 235° Southwest  Level Estimated
Wed 12:41:15 PM 54.2228 9.0211 235° Southwest  Level Estimated
Wed 12:42:15 PM 54.1630 8.8765 235° Southwest  Level Estimated
Wed 12:43:15 PM 54.0942 8.7114 235° Southwest  Level Estimated
Wed 12:44:15 PM 54.0253 8.5469 234° Southwest  Level Estimated
Wed 12:45:15 PM 53.9561 8.3829 234° Southwest  Level Estimated
Wed 12:46:15 PM 53.8867 8.2195 234° Southwest  Level Estimated
Wed 12:47:15 PM 53.8170 8.0566 234° Southwest  Level Estimated
Wed 12:48:15 PM 53.7472 7.8942 234° Southwest  Level Estimated
Wed 12:49:15 PM 53.6771 7.7324 234° Southwest  Level Estimated
Wed 12:50:15 PM 53.6068 7.5711 234° Southwest  Level Estimated
Wed 12:51:15 PM 53.5363 7.4103 233° Southwest  Level Estimated
Wed 12:52:15 PM 53.4656 7.2501 233° Southwest  Level Estimated
Wed 12:53:15 PM 53.3946 7.0904 233° Southwest  Level Estimated
Wed 12:54:15 PM 53.3235 6.9313 233° Southwest  Level Estimated
Wed 12:55:15 PM 53.2521 6.7726 233° Southwest  Level Estimated
Wed 12:56:15 PM 53.1806 6.6146 233° Southwest  Level Estimated
Wed 12:57:15 PM 53.1088 6.4570 233° Southwest  Level Estimated
Wed 12:58:15 PM 53.0368 6.3000 233° Southwest  Level Estimated
Wed 12:59:15 PM 52.9646 6.1434 232° Southwest  Level Estimated
Wed 01:00:15 PM 52.8922 5.9875 232° Southwest  Level Estimated
Wed 01:01:15 PM 52.8196 5.8320 232° Southwest  Level Estimated
Wed 01:02:15 PM 52.7468 5.6770 232° Southwest  Level Estimated
Wed 01:03:15 PM 52.6738 5.5226 232° Southwest  Level Estimated
Wed 01:04:15 PM 52.6006 5.3687 232° Southwest  Level Estimated
Wed 01:05:15 PM 52.5272 5.2153 232° Southwest  Level Estimated
Wed 01:06:15 PM 52.4536 5.0624 232° Southwest  Level Estimated
Wed 01:07:15 PM 52.3798 4.9100 231° Southwest  Level Estimated
Wed 01:08:15 PM 52.3058 4.7582 51° Northeast  Level Estimated
Wed 01:09:15 PM 52.3798 4.9100 231° Southwest  Level Estimated
Wed 01:10:15 PM 52.3058 4.7582 51° Northeast  Level Estimated
Wed 01:11:15 PM 52.3798 4.9100 231° Southwest  Level Estimated
Wed 01:12:15 PM 52.3058 4.7582 51° Northeast  Level Estimated
Wed 01:13:15 PM 52.3798 4.9100 231° Southwest  Level Estimated
Wed 01:14:15 PM 52.3058 4.7582 51° Northeast  Level Estimated
Wed 01:15:15 PM 52.3798 4.9100 231° Southwest  Level Estimated
Wed 01:16:15 PM 52.3058 4.7582 51° Northeast  Level Estimated
Wed 01:17:15 PM 52.3798 4.9100 231° Southwest  Level Estimated
Wed 01:18:15 PM 52.3058 4.7582 51° Northeast  Level Estimated
Wed 01:19:15 PM 52.3798 4.9100 51° Northeast  Level Estimated

Login

Don't have an account? Register now (free) for customized features, flight alerts, and more!